sensor_id;sensor_type;location;lat;lon;timestamp;P1;durP1;ratioP1;P2;durP2;ratioP2
7171;SDS011;3627;46.544;14.944;2022-11-11T00:01:46;5.75;;;3.28;;
7171;SDS011;3627;46.544;14.944;2022-11-11T00:04:12;6.13;;;3.63;;
7171;SDS011;3627;46.544;14.944;2022-11-11T00:06:40;4.35;;;3.42;;
7171;SDS011;3627;46.544;14.944;2022-11-11T00:09:07;7.35;;;3.65;;
7171;SDS011;3627;46.544;14.944;2022-11-11T00:11:35;3.45;;;3.03;;
7171;SDS011;3627;46.544;14.944;2022-11-11T00:14:02;5.35;;;3.45;;
7171;SDS011;3627;46.544;14.944;2022-11-11T00:16:28;3.42;;;3.13;;
7171;SDS011;3627;46.544;14.944;2022-11-11T00:19:15;6.13;;;3.33;;
7171;SDS011;3627;46.544;14.944;2022-11-11T00:22:00;3.63;;;2.97;;
7171;SDS011;3627;46.544;14.944;2022-11-11T00:24:44;3.97;;;3.25;;
7171;SDS011;3627;46.544;14.944;2022-11-11T00:27:28;3.33;;;3.03;;
7171;SDS011;3627;46.544;14.944;2022-11-11T00:29:54;5.07;;;3.25;;
7171;SDS011;3627;46.544;14.944;2022-11-11T00:32:21;3.22;;;2.92;;
7171;SDS011;3627;46.544;14.944;2022-11-11T00:34:53;3.38;;;2.90;;
7171;SDS011;3627;46.544;14.944;2022-11-11T00:37:38;3.30;;;2.88;;
7171;SDS011;3627;46.544;14.944;2022-11-11T00:40:05;2.83;;;2.53;;
7171;SDS011;3627;46.544;14.944;2022-11-11T00:42:31;3.45;;;2.90;;
7171;SDS011;3627;46.544;14.944;2022-11-11T00:44:58;4.03;;;3.17;;
7171;SDS011;3627;46.544;14.944;2022-11-11T00:47:24;3.35;;;2.88;;
7171;SDS011;3627;46.544;14.944;2022-11-11T00:50:09;4.63;;;3.83;;
7171;SDS011;3627;46.544;14.944;2022-11-11T00:52:55;3.03;;;2.78;;
7171;SDS011;3627;46.544;14.944;2022-11-11T00:55:21;3.58;;;3.13;;
7171;SDS011;3627;46.544;14.944;2022-11-11T00:57:48;6.07;;;3.00;;
7171;SDS011;3627;46.544;14.944;2022-11-11T01:00:14;2.60;;;2.40;;
7171;SDS011;3627;46.544;14.944;2022-11-11T01:02:41;4.97;;;3.17;;
7171;SDS011;3627;46.544;14.944;2022-11-11T01:05:07;3.63;;;3.13;;
7171;SDS011;3627;46.544;14.944;2022-11-11T01:07:34;4.60;;;3.13;;
7171;SDS011;3627;46.544;14.944;2022-11-11T01:10:02;3.25;;;2.90;;
7171;SDS011;3627;46.544;14.944;2022-11-11T01:12:28;3.63;;;3.10;;
7171;SDS011;3627;46.544;14.944;2022-11-11T01:14:55;3.20;;;2.88;;
7171;SDS011;3627;46.544;14.944;2022-11-11T01:17:21;4.60;;;2.95;;
7171;SDS011;3627;46.544;14.944;2022-11-11T01:19:47;2.90;;;2.60;;
7171;SDS011;3627;46.544;14.944;2022-11-11T01:22:14;3.53;;;3.05;;
7171;SDS011;3627;46.544;14.944;2022-11-11T01:24:40;5.20;;;3.47;;
7171;SDS011;3627;46.544;14.944;2022-11-11T01:27:08;4.30;;;3.00;;
7171;SDS011;3627;46.544;14.944;2022-11-11T01:29:34;3.97;;;3.10;;
7171;SDS011;3627;46.544;14.944;2022-11-11T01:32:01;3.13;;;2.83;;
7171;SDS011;3627;46.544;14.944;2022-11-11T01:34:27;4.10;;;2.85;;
7171;SDS011;3627;46.544;14.944;2022-11-11T01:36:53;3.47;;;2.88;;
7171;SDS011;3627;46.544;14.944;2022-11-11T01:39:20;4.30;;;3.10;;
7171;SDS011;3627;46.544;14.944;2022-11-11T01:41:46;3.13;;;2.83;;
7171;SDS011;3627;46.544;14.944;2022-11-11T01:44:18;2.95;;;2.65;;
7171;SDS011;3627;46.544;14.944;2022-11-11T01:46:46;2.97;;;2.65;;
7171;SDS011;3627;46.544;14.944;2022-11-11T01:49:27;3.65;;;3.08;;
7171;SDS011;3627;46.544;14.944;2022-11-11T01:51:56;3.13;;;2.80;;
7171;SDS011;3627;46.544;14.944;2022-11-11T01:54:25;3.20;;;2.90;;
7171;SDS011;3627;46.544;14.944;2022-11-11T01:56:54;3.10;;;2.70;;
7171;SDS011;3627;46.544;14.944;2022-11-11T01:59:23;4.13;;;3.10;;
7171;SDS011;3627;46.544;14.944;2022-11-11T02:01:49;6.20;;;3.33;;
7171;SDS011;3627;46.544;14.944;2022-11-11T02:04:16;4.53;;;2.90;;
7171;SDS011;3627;46.544;14.944;2022-11-11T02:07:01;3.70;;;2.78;;
7171;SDS011;3627;46.544;14.944;2022-11-11T02:09:29;2.95;;;2.65;;
7171;SDS011;3627;46.544;14.944;2022-11-11T02:11:55;3.70;;;3.15;;
7171;SDS011;3627;46.544;14.944;2022-11-11T02:14:43;3.25;;;2.78;;
7171;SDS011;3627;46.544;14.944;2022-11-11T02:17:11;3.08;;;2.85;;
7171;SDS011;3627;46.544;14.944;2022-11-11T02:19:41;2.85;;;2.50;;
7171;SDS011;3627;46.544;14.944;2022-11-11T02:22:10;3.58;;;2.78;;
7171;SDS011;3627;46.544;14.944;2022-11-11T02:24:39;2.70;;;2.50;;
7171;SDS011;3627;46.544;14.944;2022-11-11T02:27:06;2.78;;;2.53;;
7171;SDS011;3627;46.544;14.944;2022-11-11T02:29:33;3.38;;;2.88;;
7171;SDS011;3627;46.544;14.944;2022-11-11T02:32:00;3.58;;;2.90;;
7171;SDS011;3627;46.544;14.944;2022-11-11T02:34:28;4.65;;;3.05;;
7171;SDS011;3627;46.544;14.944;2022-11-11T02:36:54;3.35;;;3.05;;
7171;SDS011;3627;46.544;14.944;2022-11-11T02:39:20;5.10;;;2.90;;
7171;SDS011;3627;46.544;14.944;2022-11-11T02:41:48;3.15;;;2.70;;
7171;SDS011;3627;46.544;14.944;2022-11-11T02:44:24;3.30;;;2.95;;
7171;SDS011;3627;46.544;14.944;2022-11-11T02:46:51;2.78;;;2.58;;
7171;SDS011;3627;46.544;14.944;2022-11-11T02:49:17;2.97;;;2.78;;
7171;SDS011;3627;46.544;14.944;2022-11-11T02:51:44;4.25;;;2.83;;
7171;SDS011;3627;46.544;14.944;2022-11-11T02:54:11;3.53;;;2.90;;
7171;SDS011;3627;46.544;14.944;2022-11-11T02:56:38;3.03;;;2.72;;
7171;SDS011;3627;46.544;14.944;2022-11-11T02:59:23;3.72;;;2.53;;
7171;SDS011;3627;46.544;14.944;2022-11-11T03:01:49;3.33;;;2.80;;
7171;SDS011;3627;46.544;14.944;2022-11-11T03:04:16;5.55;;;3.40;;
7171;SDS011;3627;46.544;14.944;2022-11-11T03:06:42;4.13;;;2.83;;
7171;SDS011;3627;46.544;14.944;2022-11-11T03:09:08;3.60;;;3.17;;
7171;SDS011;3627;46.544;14.944;2022-11-11T03:11:35;4.88;;;3.63;;
7171;SDS011;3627;46.544;14.944;2022-11-11T03:14:03;5.60;;;3.63;;
7171;SDS011;3627;46.544;14.944;2022-11-11T03:16:31;4.95;;;3.97;;
7171;SDS011;3627;46.544;14.944;2022-11-11T03:19:15;4.18;;;3.70;;
7171;SDS011;3627;46.544;14.944;2022-11-11T03:21:41;5.32;;;3.35;;
7171;SDS011;3627;46.544;14.944;2022-11-11T03:24:07;3.50;;;2.80;;
7171;SDS011;3627;46.544;14.944;2022-11-11T03:26:33;4.40;;;3.42;;
7171;SDS011;3627;46.544;14.944;2022-11-11T03:28:59;3.13;;;2.65;;
7171;SDS011;3627;46.544;14.944;2022-11-11T03:31:25;3.65;;;2.60;;
7171;SDS011;3627;46.544;14.944;2022-11-11T03:33:53;4.32;;;3.20;;
7171;SDS011;3627;46.544;14.944;2022-11-11T03:36:20;3.25;;;2.92;;
7171;SDS011;3627;46.544;14.944;2022-11-11T03:39:06;3.08;;;2.80;;
7171;SDS011;3627;46.544;14.944;2022-11-11T03:41:31;3.30;;;3.00;;
7171;SDS011;3627;46.544;14.944;2022-11-11T03:43:58;4.65;;;3.80;;
7171;SDS011;3627;46.544;14.944;2022-11-11T03:46:24;5.10;;;3.08;;
7171;SDS011;3627;46.544;14.944;2022-11-11T03:48:52;2.95;;;2.65;;
7171;SDS011;3627;46.544;14.944;2022-11-11T03:51:19;2.65;;;2.45;;
7171;SDS011;3627;46.544;14.944;2022-11-11T03:53:45;6.03;;;2.90;;
7171;SDS011;3627;46.544;14.944;2022-11-11T03:56:11;5.50;;;2.85;;
7171;SDS011;3627;46.544;14.944;2022-11-11T03:58:38;3.55;;;3.25;;
7171;SDS011;3627;46.544;14.944;2022-11-11T04:01:04;3.58;;;2.85;;
7171;SDS011;3627;46.544;14.944;2022-11-11T04:03:50;4.95;;;3.35;;
7171;SDS011;3627;46.544;14.944;2022-11-11T04:06:35;3.30;;;2.53;;
7171;SDS011;3627;46.544;14.944;2022-11-11T04:09:30;3.70;;;3.38;;
7171;SDS011;3627;46.544;14.944;2022-11-11T04:12:14;3.88;;;2.88;;
7171;SDS011;3627;46.544;14.944;2022-11-11T04:14:40;5.35;;;3.20;;
7171;SDS011;3627;46.544;14.944;2022-11-11T04:17:24;3.42;;;3.03;;
7171;SDS011;3627;46.544;14.944;2022-11-11T04:19:51;3.00;;;2.60;;
7171;SDS011;3627;46.544;14.944;2022-11-11T04:22:40;4.38;;;3.67;;
7171;SDS011;3627;46.544;14.944;2022-11-11T04:25:07;4.80;;;3.33;;
7171;SDS011;3627;46.544;14.944;2022-11-11T04:27:50;4.93;;;2.83;;
7171;SDS011;3627;46.544;14.944;2022-11-11T04:30:37;4.25;;;3.33;;
7171;SDS011;3627;46.544;14.944;2022-11-11T04:33:02;4.60;;;2.90;;
7171;SDS011;3627;46.544;14.944;2022-11-11T04:35:28;3.35;;;3.03;;
7171;SDS011;3627;46.544;14.944;2022-11-11T04:37:56;5.03;;;4.25;;
7171;SDS011;3627;46.544;14.944;2022-11-11T04:40:43;3.75;;;2.90;;
7171;SDS011;3627;46.544;14.944;2022-11-11T04:43:26;4.45;;;3.45;;
7171;SDS011;3627;46.544;14.944;2022-11-11T04:45:56;5.32;;;3.50;;
7171;SDS011;3627;46.544;14.944;2022-11-11T04:48:22;5.95;;;3.63;;
7171;SDS011;3627;46.544;14.944;2022-11-11T04:50:48;4.15;;;3.67;;
7171;SDS011;3627;46.544;14.944;2022-11-11T04:53:16;4.40;;;3.67;;
7171;SDS011;3627;46.544;14.944;2022-11-11T04:55:43;8.13;;;3.47;;
7171;SDS011;3627;46.544;14.944;2022-11-11T04:58:28;4.53;;;3.50;;
7171;SDS011;3627;46.544;14.944;2022-11-11T05:00:55;5.25;;;3.85;;
7171;SDS011;3627;46.544;14.944;2022-11-11T05:03:21;3.65;;;3.30;;
7171;SDS011;3627;46.544;14.944;2022-11-11T05:05:48;3.20;;;2.90;;
7171;SDS011;3627;46.544;14.944;2022-11-11T05:08:34;4.68;;;3.40;;
7171;SDS011;3627;46.544;14.944;2022-11-11T05:11:18;3.30;;;3.00;;
7171;SDS011;3627;46.544;14.944;2022-11-11T05:13:45;5.15;;;3.10;;
7171;SDS011;3627;46.544;14.944;2022-11-11T05:16:30;4.53;;;3.95;;
7171;SDS011;3627;46.544;14.944;2022-11-11T05:19:14;7.60;;;3.58;;
7171;SDS011;3627;46.544;14.944;2022-11-11T05:22:01;3.80;;;3.13;;
7171;SDS011;3627;46.544;14.944;2022-11-11T05:24:31;4.25;;;3.38;;
7171;SDS011;3627;46.544;14.944;2022-11-11T05:27:15;4.78;;;3.55;;
7171;SDS011;3627;46.544;14.944;2022-11-11T05:29:42;3.88;;;3.40;;
7171;SDS011;3627;46.544;14.944;2022-11-11T05:32:08;3.90;;;3.53;;
7171;SDS011;3627;46.544;14.944;2022-11-11T05:34:34;4.03;;;3.42;;
7171;SDS011;3627;46.544;14.944;2022-11-11T05:37:01;3.35;;;2.70;;
7171;SDS011;3627;46.544;14.944;2022-11-11T05:39:27;3.53;;;3.22;;
7171;SDS011;3627;46.544;14.944;2022-11-11T05:41:55;4.88;;;3.45;;
7171;SDS011;3627;46.544;14.944;2022-11-11T05:44:21;3.38;;;2.88;;
7171;SDS011;3627;46.544;14.944;2022-11-11T05:46:48;3.67;;;2.88;;
7171;SDS011;3627;46.544;14.944;2022-11-11T05:49:14;3.80;;;2.92;;
7171;SDS011;3627;46.544;14.944;2022-11-11T05:51:41;3.95;;;3.00;;
7171;SDS011;3627;46.544;14.944;2022-11-11T05:54:07;3.38;;;3.08;;
7171;SDS011;3627;46.544;14.944;2022-11-11T05:56:33;4.40;;;3.17;;
7171;SDS011;3627;46.544;14.944;2022-11-11T05:59:01;5.13;;;3.65;;
7171;SDS011;3627;46.544;14.944;2022-11-11T06:01:28;3.38;;;2.97;;
7171;SDS011;3627;46.544;14.944;2022-11-11T06:03:54;2.92;;;2.65;;
7171;SDS011;3627;46.544;14.944;2022-11-11T06:06:21;4.38;;;3.38;;
7171;SDS011;3627;46.544;14.944;2022-11-11T06:08:47;3.35;;;3.03;;
7171;SDS011;3627;46.544;14.944;2022-11-11T06:11:13;3.00;;;2.65;;
7171;SDS011;3627;46.544;14.944;2022-11-11T06:13:40;3.35;;;3.05;;
7171;SDS011;3627;46.544;14.944;2022-11-11T06:16:08;2.97;;;2.78;;
7171;SDS011;3627;46.544;14.944;2022-11-11T06:18:34;3.70;;;3.33;;
7171;SDS011;3627;46.544;14.944;2022-11-11T06:21:01;5.10;;;3.00;;
7171;SDS011;3627;46.544;14.944;2022-11-11T06:23:28;5.53;;;2.95;;
7171;SDS011;3627;46.544;14.944;2022-11-11T06:25:54;3.53;;;2.95;;
7171;SDS011;3627;46.544;14.944;2022-11-11T06:28:38;3.90;;;3.60;;
7171;SDS011;3627;46.544;14.944;2022-11-11T06:31:05;4.28;;;3.58;;
7171;SDS011;3627;46.544;14.944;2022-11-11T06:33:33;4.07;;;3.25;;
7171;SDS011;3627;46.544;14.944;2022-11-11T06:36:00;4.90;;;3.33;;
7171;SDS011;3627;46.544;14.944;2022-11-11T06:38:26;6.32;;;3.25;;
7171;SDS011;3627;46.544;14.944;2022-11-11T06:40:53;3.78;;;3.30;;
7171;SDS011;3627;46.544;14.944;2022-11-11T06:43:19;5.70;;;3.70;;
7171;SDS011;3627;46.544;14.944;2022-11-11T06:45:48;6.15;;;4.45;;
7171;SDS011;3627;46.544;14.944;2022-11-11T06:48:15;4.32;;;3.92;;
7171;SDS011;3627;46.544;14.944;2022-11-11T06:50:42;4.90;;;3.88;;
7171;SDS011;3627;46.544;14.944;2022-11-11T06:53:09;6.05;;;3.92;;
7171;SDS011;3627;46.544;14.944;2022-11-11T06:55:36;9.82;;;5.38;;
7171;SDS011;3627;46.544;14.944;2022-11-11T06:58:03;9.13;;;4.95;;
7171;SDS011;3627;46.544;14.944;2022-11-11T07:00:30;6.65;;;4.85;;
7171;SDS011;3627;46.544;14.944;2022-11-11T07:02:57;7.38;;;4.32;;
7171;SDS011;3627;46.544;14.944;2022-11-11T07:05:23;6.70;;;4.65;;
7171;SDS011;3627;46.544;14.944;2022-11-11T07:07:51;6.47;;;5.15;;
7171;SDS011;3627;46.544;14.944;2022-11-11T07:10:17;12.43;;;6.13;;
7171;SDS011;3627;46.544;14.944;2022-11-11T07:12:44;9.52;;;6.05;;
7171;SDS011;3627;46.544;14.944;2022-11-11T07:15:10;5.68;;;3.85;;
7171;SDS011;3627;46.544;14.944;2022-11-11T07:17:37;5.55;;;3.88;;
7171;SDS011;3627;46.544;14.944;2022-11-11T07:20:03;5.32;;;3.60;;
7171;SDS011;3627;46.544;14.944;2022-11-11T07:22:30;5.70;;;4.18;;
7171;SDS011;3627;46.544;14.944;2022-11-11T07:24:58;6.20;;;3.60;;
7171;SDS011;3627;46.544;14.944;2022-11-11T07:27:24;5.65;;;4.18;;
7171;SDS011;3627;46.544;14.944;2022-11-11T07:29:50;6.88;;;3.78;;
7171;SDS011;3627;46.544;14.944;2022-11-11T07:32:17;5.78;;;3.88;;
7171;SDS011;3627;46.544;14.944;2022-11-11T07:34:43;5.45;;;3.15;;
7171;SDS011;3627;46.544;14.944;2022-11-11T07:37:10;5.43;;;3.97;;
7171;SDS011;3627;46.544;14.944;2022-11-11T07:39:36;3.72;;;3.17;;
7171;SDS011;3627;46.544;14.944;2022-11-11T07:42:04;8.10;;;4.00;;
7171;SDS011;3627;46.544;14.944;2022-11-11T07:44:30;7.13;;;4.25;;
7171;SDS011;3627;46.544;14.944;2022-11-11T07:46:57;5.70;;;3.28;;
7171;SDS011;3627;46.544;14.944;2022-11-11T07:49:23;5.55;;;3.85;;
7171;SDS011;3627;46.544;14.944;2022-11-11T07:51:49;4.22;;;3.30;;
7171;SDS011;3627;46.544;14.944;2022-11-11T07:54:16;5.32;;;3.85;;
7171;SDS011;3627;46.544;14.944;2022-11-11T07:56:42;7.63;;;3.78;;
7171;SDS011;3627;46.544;14.944;2022-11-11T07:59:10;4.25;;;3.40;;
7171;SDS011;3627;46.544;14.944;2022-11-11T08:01:36;4.65;;;3.75;;
7171;SDS011;3627;46.544;14.944;2022-11-11T08:04:03;4.28;;;3.72;;
7171;SDS011;3627;46.544;14.944;2022-11-11T08:06:29;10.80;;;3.63;;
7171;SDS011;3627;46.544;14.944;2022-11-11T08:08:56;6.07;;;3.92;;
7171;SDS011;3627;46.544;14.944;2022-11-11T08:11:22;4.30;;;3.30;;
7171;SDS011;3627;46.544;14.944;2022-11-11T08:14:02;6.95;;;3.35;;
7171;SDS011;3627;46.544;14.944;2022-11-11T08:16:30;7.85;;;4.07;;
7171;SDS011;3627;46.544;14.944;2022-11-11T08:18:57;6.32;;;3.50;;
7171;SDS011;3627;46.544;14.944;2022-11-11T08:21:23;3.83;;;3.17;;
7171;SDS011;3627;46.544;14.944;2022-11-11T08:23:50;4.40;;;3.08;;
7171;SDS011;3627;46.544;14.944;2022-11-11T08:26:16;9.32;;;3.25;;
7171;SDS011;3627;46.544;14.944;2022-11-11T08:28:43;7.20;;;4.32;;
7171;SDS011;3627;46.544;14.944;2022-11-11T08:31:10;4.05;;;3.00;;
7171;SDS011;3627;46.544;14.944;2022-11-11T08:33:37;4.53;;;2.90;;
7171;SDS011;3627;46.544;14.944;2022-11-11T08:36:04;7.13;;;3.40;;
7171;SDS011;3627;46.544;14.944;2022-11-11T08:38:32;8.02;;;3.35;;
7171;SDS011;3627;46.544;14.944;2022-11-11T08:40:58;5.35;;;3.28;;
7171;SDS011;3627;46.544;14.944;2022-11-11T08:43:24;3.88;;;3.28;;
7171;SDS011;3627;46.544;14.944;2022-11-11T08:45:51;3.85;;;2.75;;
7171;SDS011;3627;46.544;14.944;2022-11-11T08:48:18;4.00;;;2.75;;
7171;SDS011;3627;46.544;14.944;2022-11-11T08:50:46;3.45;;;2.90;;
7171;SDS011;3627;46.544;14.944;2022-11-11T08:53:12;3.25;;;2.60;;
7171;SDS011;3627;46.544;14.944;2022-11-11T08:55:39;4.28;;;2.83;;
7171;SDS011;3627;46.544;14.944;2022-11-11T08:58:05;4.53;;;2.67;;
7171;SDS011;3627;46.544;14.944;2022-11-11T09:00:32;3.72;;;3.20;;
7171;SDS011;3627;46.544;14.944;2022-11-11T09:02:59;3.75;;;2.63;;
7171;SDS011;3627;46.544;14.944;2022-11-11T09:05:25;3.10;;;2.80;;
7171;SDS011;3627;46.544;14.944;2022-11-11T09:07:53;4.18;;;2.85;;
7171;SDS011;3627;46.544;14.944;2022-11-11T09:10:20;2.97;;;2.10;;
7171;SDS011;3627;46.544;14.944;2022-11-11T09:12:46;3.70;;;2.60;;
7171;SDS011;3627;46.544;14.944;2022-11-11T09:15:13;2.78;;;2.53;;
7171;SDS011;3627;46.544;14.944;2022-11-11T09:17:44;2.50;;;2.30;;
7171;SDS011;3627;46.544;14.944;2022-11-11T09:20:11;3.08;;;2.58;;
7171;SDS011;3627;46.544;14.944;2022-11-11T09:22:40;3.80;;;2.92;;
7171;SDS011;3627;46.544;14.944;2022-11-11T09:25:08;4.15;;;3.10;;
7171;SDS011;3627;46.544;14.944;2022-11-11T09:27:34;3.13;;;2.50;;
7171;SDS011;3627;46.544;14.944;2022-11-11T09:30:01;4.90;;;3.33;;
7171;SDS011;3627;46.544;14.944;2022-11-11T09:32:27;5.50;;;3.53;;
7171;SDS011;3627;46.544;14.944;2022-11-11T09:34:54;4.57;;;3.38;;
7171;SDS011;3627;46.544;14.944;2022-11-11T09:37:20;4.30;;;3.38;;
7171;SDS011;3627;46.544;14.944;2022-11-11T09:39:46;4.25;;;3.53;;
7171;SDS011;3627;46.544;14.944;2022-11-11T09:42:16;3.72;;;2.72;;
7171;SDS011;3627;46.544;14.944;2022-11-11T09:45:00;2.80;;;2.42;;
7171;SDS011;3627;46.544;14.944;2022-11-11T09:47:30;3.53;;;2.88;;
7171;SDS011;3627;46.544;14.944;2022-11-11T09:49:58;3.28;;;2.97;;
7171;SDS011;3627;46.544;14.944;2022-11-11T09:52:27;3.25;;;2.95;;
7171;SDS011;3627;46.544;14.944;2022-11-11T09:54:54;4.80;;;3.20;;
7171;SDS011;3627;46.544;14.944;2022-11-11T09:57:26;3.72;;;3.03;;
7171;SDS011;3627;46.544;14.944;2022-11-11T09:59:55;6.90;;;3.20;;
7171;SDS011;3627;46.544;14.944;2022-11-11T10:02:25;3.65;;;2.88;;
7171;SDS011;3627;46.544;14.944;2022-11-11T10:04:55;3.42;;;2.70;;
7171;SDS011;3627;46.544;14.944;2022-11-11T10:07:24;3.67;;;2.85;;
7171;SDS011;3627;46.544;14.944;2022-11-11T10:09:53;3.60;;;2.63;;
7171;SDS011;3627;46.544;14.944;2022-11-11T10:12:22;4.38;;;2.70;;
7171;SDS011;3627;46.544;14.944;2022-11-11T10:14:54;5.15;;;4.00;;
7171;SDS011;3627;46.544;14.944;2022-11-11T10:17:25;7.30;;;4.03;;
7171;SDS011;3627;46.544;14.944;2022-11-11T10:20:00;8.52;;;3.97;;
7171;SDS011;3627;46.544;14.944;2022-11-11T10:22:30;7.45;;;4.32;;
7171;SDS011;3627;46.544;14.944;2022-11-11T10:25:02;7.38;;;3.75;;
7171;SDS011;3627;46.544;14.944;2022-11-11T10:27:31;6.25;;;3.88;;
7171;SDS011;3627;46.544;14.944;2022-11-11T10:29:59;6.63;;;4.47;;
7171;SDS011;3627;46.544;14.944;2022-11-11T10:32:27;5.63;;;3.20;;
7171;SDS011;3627;46.544;14.944;2022-11-11T10:34:56;3.22;;;2.67;;
7171;SDS011;3627;46.544;14.944;2022-11-11T10:37:26;4.50;;;3.30;;
7171;SDS011;3627;46.544;14.944;2022-11-11T10:39:59;4.88;;;3.35;;
7171;SDS011;3627;46.544;14.944;2022-11-11T10:42:27;5.15;;;3.50;;
7171;SDS011;3627;46.544;14.944;2022-11-11T10:44:55;4.65;;;2.80;;
7171;SDS011;3627;46.544;14.944;2022-11-11T10:47:27;6.15;;;3.92;;
7171;SDS011;3627;46.544;14.944;2022-11-11T10:49:57;5.30;;;3.80;;
7171;SDS011;3627;46.544;14.944;2022-11-11T10:52:26;3.63;;;3.08;;
7171;SDS011;3627;46.544;14.944;2022-11-11T10:54:54;4.90;;;3.38;;
7171;SDS011;3627;46.544;14.944;2022-11-11T10:57:25;5.18;;;3.28;;
7171;SDS011;3627;46.544;14.944;2022-11-11T10:59:55;4.20;;;3.13;;
7171;SDS011;3627;46.544;14.944;2022-11-11T11:02:26;2.40;;;2.20;;
7171;SDS011;3627;46.544;14.944;2022-11-11T11:04:56;6.10;;;4.05;;
7171;SDS011;3627;46.544;14.944;2022-11-11T11:07:24;4.75;;;3.97;;
7171;SDS011;3627;46.544;14.944;2022-11-11T11:09:53;4.38;;;3.58;;
7171;SDS011;3627;46.544;14.944;2022-11-11T11:12:23;2.88;;;2.58;;
7171;SDS011;3627;46.544;14.944;2022-11-11T11:14:50;2.45;;;2.20;;
7171;SDS011;3627;46.544;14.944;2022-11-11T11:17:19;5.88;;;3.08;;
7171;SDS011;3627;46.544;14.944;2022-11-11T11:19:51;3.63;;;2.92;;
7171;SDS011;3627;46.544;14.944;2022-11-11T11:22:43;3.08;;;2.72;;
7171;SDS011;3627;46.544;14.944;2022-11-11T11:25:10;2.95;;;2.38;;
7171;SDS011;3627;46.544;14.944;2022-11-11T11:27:36;3.38;;;2.33;;
7171;SDS011;3627;46.544;14.944;2022-11-11T11:30:09;5.20;;;2.80;;
7171;SDS011;3627;46.544;14.944;2022-11-11T11:32:35;3.10;;;2.67;;
7171;SDS011;3627;46.544;14.944;2022-11-11T11:35:04;3.35;;;3.08;;
7171;SDS011;3627;46.544;14.944;2022-11-11T11:37:30;2.97;;;2.70;;
7171;SDS011;3627;46.544;14.944;2022-11-11T11:39:58;3.67;;;3.10;;
7171;SDS011;3627;46.544;14.944;2022-11-11T11:42:29;5.47;;;2.75;;
7171;SDS011;3627;46.544;14.944;2022-11-11T11:44:55;3.67;;;2.85;;
7171;SDS011;3627;46.544;14.944;2022-11-11T11:47:33;5.00;;;2.50;;
7171;SDS011;3627;46.544;14.944;2022-11-11T11:50:11;3.53;;;3.00;;
7171;SDS011;3627;46.544;14.944;2022-11-11T11:52:42;2.97;;;2.63;;
7171;SDS011;3627;46.544;14.944;2022-11-11T11:55:15;2.92;;;2.17;;
7171;SDS011;3627;46.544;14.944;2022-11-11T11:57:45;3.50;;;2.90;;
7171;SDS011;3627;46.544;14.944;2022-11-11T12:00:16;4.45;;;3.20;;
7171;SDS011;3627;46.544;14.944;2022-11-11T12:05:33;5.85;;;3.15;;
7171;SDS011;3627;46.544;14.944;2022-11-11T12:08:02;4.60;;;2.80;;
7171;SDS011;3627;46.544;14.944;2022-11-11T12:10:35;2.90;;;2.60;;
7171;SDS011;3627;46.544;14.944;2022-11-11T12:13:06;4.28;;;2.75;;
7171;SDS011;3627;46.544;14.944;2022-11-11T12:15:35;4.40;;;3.00;;
7171;SDS011;3627;46.544;14.944;2022-11-11T12:18:11;7.15;;;3.97;;
7171;SDS011;3627;46.544;14.944;2022-11-11T12:20:44;6.20;;;3.25;;
7171;SDS011;3627;46.544;14.944;2022-11-11T12:23:25;2.97;;;2.70;;
7171;SDS011;3627;46.544;14.944;2022-11-11T12:25:58;2.88;;;2.58;;
7171;SDS011;3627;46.544;14.944;2022-11-11T12:28:33;2.88;;;2.25;;
7171;SDS011;3627;46.544;14.944;2022-11-11T12:31:06;3.03;;;2.72;;
7171;SDS011;3627;46.544;14.944;2022-11-11T12:33:39;2.40;;;2.15;;
7171;SDS011;3627;46.544;14.944;2022-11-11T12:36:11;2.55;;;2.15;;
7171;SDS011;3627;46.544;14.944;2022-11-11T12:38:44;3.70;;;2.78;;
7171;SDS011;3627;46.544;14.944;2022-11-11T12:41:15;3.72;;;2.42;;
7171;SDS011;3627;46.544;14.944;2022-11-11T12:43:46;2.67;;;2.40;;
7171;SDS011;3627;46.544;14.944;2022-11-11T12:46:15;5.30;;;3.05;;
7171;SDS011;3627;46.544;14.944;2022-11-11T12:48:48;2.97;;;2.72;;
7171;SDS011;3627;46.544;14.944;2022-11-11T12:51:19;3.17;;;2.08;;
7171;SDS011;3627;46.544;14.944;2022-11-11T12:53:49;3.03;;;2.75;;
7171;SDS011;3627;46.544;14.944;2022-11-11T12:56:21;3.13;;;2.65;;
7171;SDS011;3627;46.544;14.944;2022-11-11T12:58:50;2.42;;;2.22;;
7171;SDS011;3627;46.544;14.944;2022-11-11T13:01:22;3.40;;;2.58;;
7171;SDS011;3627;46.544;14.944;2022-11-11T13:03:53;3.50;;;3.10;;
7171;SDS011;3627;46.544;14.944;2022-11-11T13:06:29;3.38;;;2.85;;
7171;SDS011;3627;46.544;14.944;2022-11-11T13:09:05;2.75;;;2.55;;
7171;SDS011;3627;46.544;14.944;2022-11-11T13:11:36;3.42;;;2.53;;
7171;SDS011;3627;46.544;14.944;2022-11-11T13:14:08;2.75;;;2.50;;
7171;SDS011;3627;46.544;14.944;2022-11-11T13:16:38;2.15;;;1.98;;
7171;SDS011;3627;46.544;14.944;2022-11-11T13:19:05;3.08;;;2.47;;
7171;SDS011;3627;46.544;14.944;2022-11-11T13:21:41;2.85;;;2.47;;
7171;SDS011;3627;46.544;14.944;2022-11-11T13:24:09;3.08;;;2.72;;
7171;SDS011;3627;46.544;14.944;2022-11-11T13:26:38;2.75;;;2.50;;
7171;SDS011;3627;46.544;14.944;2022-11-11T13:29:12;3.88;;;2.88;;
7171;SDS011;3627;46.544;14.944;2022-11-11T13:31:39;5.03;;;3.45;;
7171;SDS011;3627;46.544;14.944;2022-11-11T13:34:08;5.40;;;3.28;;
7171;SDS011;3627;46.544;14.944;2022-11-11T13:36:38;4.55;;;3.05;;
7171;SDS011;3627;46.544;14.944;2022-11-11T13:39:15;2.75;;;2.42;;
7171;SDS011;3627;46.544;14.944;2022-11-11T13:41:44;4.82;;;3.03;;
7171;SDS011;3627;46.544;14.944;2022-11-11T13:44:17;8.88;;;4.50;;
7171;SDS011;3627;46.544;14.944;2022-11-11T13:46:46;7.75;;;4.28;;
7171;SDS011;3627;46.544;14.944;2022-11-11T13:49:19;6.32;;;3.80;;
7171;SDS011;3627;46.544;14.944;2022-11-11T13:51:46;6.35;;;3.78;;
7171;SDS011;3627;46.544;14.944;2022-11-11T13:54:24;6.07;;;4.55;;
7171;SDS011;3627;46.544;14.944;2022-11-11T13:56:51;6.72;;;3.85;;
7171;SDS011;3627;46.544;14.944;2022-11-11T13:59:19;3.72;;;2.95;;
7171;SDS011;3627;46.544;14.944;2022-11-11T14:01:47;3.05;;;2.75;;
7171;SDS011;3627;46.544;14.944;2022-11-11T14:04:39;3.67;;;3.10;;
7171;SDS011;3627;46.544;14.944;2022-11-11T14:10:49;6.25;;;3.42;;
7171;SDS011;3627;46.544;14.944;2022-11-11T14:15:58;2.40;;;2.20;;
7171;SDS011;3627;46.544;14.944;2022-11-11T14:18:43;3.17;;;2.97;;
7171;SDS011;3627;46.544;14.944;2022-11-11T14:21:10;2.63;;;2.42;;
7171;SDS011;3627;46.544;14.944;2022-11-11T14:23:56;3.03;;;2.72;;
7171;SDS011;3627;46.544;14.944;2022-11-11T14:26:25;2.80;;;2.60;;
7171;SDS011;3627;46.544;14.944;2022-11-11T14:28:52;3.90;;;3.22;;
7171;SDS011;3627;46.544;14.944;2022-11-11T14:31:41;3.28;;;2.92;;
7171;SDS011;3627;46.544;14.944;2022-11-11T14:34:13;3.38;;;2.78;;
7171;SDS011;3627;46.544;14.944;2022-11-11T14:36:42;3.10;;;2.80;;
7171;SDS011;3627;46.544;14.944;2022-11-11T14:39:14;3.90;;;2.88;;
7171;SDS011;3627;46.544;14.944;2022-11-11T14:41:46;4.40;;;2.97;;
7171;SDS011;3627;46.544;14.944;2022-11-11T14:49:46;8.70;;;3.80;;
7171;SDS011;3627;46.544;14.944;2022-11-11T14:52:16;5.82;;;3.53;;
7171;SDS011;3627;46.544;14.944;2022-11-11T14:57:28;6.72;;;3.75;;
7171;SDS011;3627;46.544;14.944;2022-11-11T14:59:55;4.40;;;3.42;;
7171;SDS011;3627;46.544;14.944;2022-11-11T15:02:30;5.22;;;3.97;;
7171;SDS011;3627;46.544;14.944;2022-11-11T15:04:58;3.72;;;3.22;;
7171;SDS011;3627;46.544;14.944;2022-11-11T15:07:37;3.13;;;2.80;;
7171;SDS011;3627;46.544;14.944;2022-11-11T15:10:17;4.72;;;3.15;;
7171;SDS011;3627;46.544;14.944;2022-11-11T15:12:53;4.72;;;3.35;;
7171;SDS011;3627;46.544;14.944;2022-11-11T15:15:22;4.00;;;3.42;;
7171;SDS011;3627;46.544;14.944;2022-11-11T15:17:52;4.70;;;3.30;;
7171;SDS011;3627;46.544;14.944;2022-11-11T15:23:09;4.03;;;3.42;;
7171;SDS011;3627;46.544;14.944;2022-11-11T15:25:42;3.92;;;2.70;;
7171;SDS011;3627;46.544;14.944;2022-11-11T15:28:15;3.38;;;2.83;;
7171;SDS011;3627;46.544;14.944;2022-11-11T15:30:49;3.42;;;3.13;;
7171;SDS011;3627;46.544;14.944;2022-11-11T15:33:20;4.45;;;3.13;;
7171;SDS011;3627;46.544;14.944;2022-11-11T15:35:50;4.88;;;3.13;;
7171;SDS011;3627;46.544;14.944;2022-11-11T15:38:21;4.63;;;3.38;;